createdAt,value
2017-07-10T00:00:24.315Z,12.5
2017-07-10T00:01:26.566Z,12.8
2017-07-10T00:02:28.876Z,11.7
2017-07-10T00:03:31.135Z,12.0
2017-07-10T00:04:33.488Z,13.0
2017-07-10T00:05:35.803Z,13.3
2017-07-10T00:06:38.120Z,12.0
2017-07-10T00:07:40.325Z,13.5
2017-07-10T00:08:42.504Z,11.8
2017-07-10T00:09:44.743Z,12.4
2017-07-10T00:10:46.999Z,12.9
2017-07-10T00:11:49.109Z,13.4
2017-07-10T00:12:51.369Z,12.3
2017-07-10T00:13:53.546Z,13.6
2017-07-10T00:14:55.871Z,13.4
2017-07-10T00:15:58.065Z,13.6
2017-07-10T00:17:00.285Z,13.0
2017-07-10T00:18:02.532Z,12.9
2017-07-10T00:19:04.817Z,12.3
2017-07-10T00:20:06.903Z,12.6
2017-07-10T00:21:09.098Z,14.5
2017-07-10T00:22:11.283Z,12.3
2017-07-10T00:23:13.524Z,14.0
2017-07-10T00:24:15.752Z,12.3
2017-07-10T00:25:17.990Z,12.5
2017-07-10T00:26:20.228Z,13.0
2017-07-10T00:27:22.520Z,11.6
2017-07-10T00:28:24.746Z,13.8
2017-07-10T00:29:26.948Z,12.9
2017-07-10T00:30:29.106Z,12.1
2017-07-10T00:31:31.210Z,13.0
2017-07-10T00:32:33.502Z,12.5
2017-07-10T00:33:35.644Z,13.6
2017-07-10T00:34:37.947Z,12.9
2017-07-10T00:35:40.099Z,13.2
2017-07-10T00:36:42.308Z,12.8
2017-07-10T00:37:44.599Z,12.6
2017-07-10T00:38:47.612Z,13.1
2017-07-10T00:39:49.889Z,13.1
2017-07-10T00:40:52.214Z,12.0
2017-07-10T00:41:54.415Z,13.7
2017-07-10T00:42:56.674Z,13.2
2017-07-10T00:43:58.934Z,13.6
2017-07-10T00:45:01.142Z,13.5
2017-07-10T00:46:03.615Z,12.7
2017-07-10T00:47:05.909Z,13.3
2017-07-10T00:48:08.179Z,12.6
2017-07-10T00:49:10.538Z,13.7
2017-07-10T00:50:12.770Z,13.0
2017-07-10T00:51:14.940Z,14.0
2017-07-10T00:52:17.150Z,13.2
2017-07-10T00:53:19.405Z,13.0
2017-07-10T00:54:21.693Z,14.2
2017-07-10T00:55:23.925Z,14.3
2017-07-10T00:56:26.062Z,13.3
2017-07-10T00:57:28.418Z,14.7
2017-07-10T00:58:30.587Z,14.2
2017-07-10T00:59:32.848Z,13.7
2017-07-10T01:00:34.896Z,14.1
2017-07-10T01:01:37.262Z,13.6
2017-07-10T01:02:39.592Z,13.1
2017-07-10T01:03:41.816Z,13.7
2017-07-10T01:04:44.046Z,13.1
2017-07-10T01:05:46.292Z,12.0
2017-07-10T01:06:48.460Z,12.4
2017-07-10T01:07:50.643Z,12.1
2017-07-10T01:08:52.752Z,11.9
2017-07-10T01:09:54.972Z,12.7
2017-07-10T01:10:57.146Z,12.7
2017-07-10T01:11:59.472Z,13.0
2017-07-10T01:13:01.664Z,13.3
2017-07-10T01:14:03.917Z,12.7
2017-07-10T01:15:06.067Z,12.8
2017-07-10T01:16:08.344Z,12.6
2017-07-10T01:17:10.560Z,12.2
2017-07-10T01:18:12.722Z,12.8
2017-07-10T01:19:14.875Z,12.5
2017-07-10T01:20:17.170Z,13.0
2017-07-10T01:21:19.457Z,13.6
2017-07-10T01:22:21.803Z,13.6
2017-07-10T01:23:23.892Z,14.7
2017-07-10T01:24:26.154Z,15.5
2017-07-10T01:25:28.281Z,14.2
2017-07-10T01:26:30.536Z,13.7
2017-07-10T01:27:32.738Z,15.2
2017-07-10T01:28:34.898Z,14.7
2017-07-10T01:29:37.047Z,15.3
2017-07-10T01:30:39.266Z,14.5
2017-07-10T01:31:41.553Z,16.2
2017-07-10T01:32:43.741Z,14.6
2017-07-10T01:33:46.036Z,15.5
2017-07-10T01:34:48.352Z,15.0
2017-07-10T01:35:50.606Z,15.0
2017-07-10T01:36:52.939Z,15.2
2017-07-10T01:37:55.046Z,14.9
2017-07-10T01:38:57.175Z,14.6
2017-07-10T01:39:59.425Z,14.5
2017-07-10T01:41:01.720Z,15.0
2017-07-10T01:42:03.979Z,15.2
2017-07-10T01:43:06.201Z,16.8
2017-07-10T01:44:08.308Z,15.5
2017-07-10T01:45:10.476Z,15.8
2017-07-10T01:46:12.729Z,16.0
2017-07-10T01:47:14.944Z,15.1
2017-07-10T01:48:17.068Z,17.4
2017-07-10T01:49:19.367Z,15.7
2017-07-10T01:50:21.686Z,16.9
2017-07-10T01:51:23.883Z,17.4
2017-07-10T01:52:26.136Z,17.2
2017-07-10T01:53:28.360Z,17.0
2017-07-10T01:54:30.577Z,17.6
2017-07-10T01:55:32.860Z,15.7
2017-07-10T01:56:35.015Z,15.5
2017-07-10T01:57:37.323Z,15.3
2017-07-10T01:58:39.481Z,15.5
2017-07-10T01:59:41.801Z,15.6
2017-07-10T02:00:44.028Z,15.1
2017-07-10T02:01:46.239Z,16.2
2017-07-10T02:02:48.493Z,16.6
2017-07-10T02:03:50.773Z,16.3
2017-07-10T02:04:53.032Z,16.5
2017-07-10T02:05:55.288Z,15.6
2017-07-10T02:06:57.512Z,15.1
2017-07-10T02:07:59.706Z,16.4
2017-07-10T02:09:01.899Z,16.3
2017-07-10T02:10:04.315Z,15.8
2017-07-10T02:11:06.485Z,14.9
2017-07-10T02:12:08.685Z,16.1
2017-07-10T02:13:10.804Z,15.1
2017-07-10T02:14:12.990Z,14.0
2017-07-10T02:15:15.121Z,15.4
2017-07-10T02:16:17.392Z,16.3
2017-07-10T02:17:19.585Z,15.5
2017-07-10T02:18:21.947Z,15.3
2017-07-10T02:19:24.243Z,15.2
2017-07-10T02:20:26.383Z,15.5
2017-07-10T02:21:28.662Z,15.3
2017-07-10T02:22:30.871Z,15.5
2017-07-10T02:23:33.099Z,15.6
2017-07-10T02:24:35.216Z,17.5
2017-07-10T02:25:37.354Z,16.3
2017-07-10T02:26:39.592Z,17.3
2017-07-10T02:27:41.804Z,16.3
2017-07-10T02:28:44.050Z,16.6
2017-07-10T02:29:46.294Z,18.5
2017-07-10T02:30:48.480Z,17.7
2017-07-10T02:31:50.761Z,19.2
2017-07-10T02:32:53.049Z,17.4
2017-07-10T02:33:55.259Z,18.0
2017-07-10T02:34:57.402Z,19.7
2017-07-10T02:35:59.611Z,18.5
2017-07-10T02:37:01.749Z,19.7
2017-07-10T02:38:03.909Z,19.0
2017-07-10T02:39:06.183Z,19.8
2017-07-10T02:40:08.398Z,21.0
2017-07-10T02:41:10.645Z,20.4
2017-07-10T02:42:13.304Z,21.8
2017-07-10T02:43:15.471Z,22.5
2017-07-10T02:44:17.778Z,23.1
2017-07-10T02:45:19.947Z,24.1
2017-07-10T02:46:22.207Z,24.1
2017-07-10T02:47:24.406Z,25.1
2017-07-10T02:48:26.625Z,26.2
2017-07-10T02:49:28.966Z,27.1
2017-07-10T02:50:31.197Z,25.0
2017-07-10T02:51:33.490Z,25.7
2017-07-10T02:52:35.806Z,28.1
2017-07-10T02:53:38.051Z,25.3
2017-07-10T02:54:40.202Z,26.3
2017-07-10T02:55:42.432Z,24.6
2017-07-10T02:56:44.717Z,24.8
2017-07-10T02:57:46.870Z,26.0
2017-07-10T02:58:49.078Z,26.4
2017-07-10T02:59:51.369Z,27.2
2017-07-10T03:00:53.686Z,27.6
2017-07-10T03:01:55.919Z,28.7
2017-07-10T03:02:58.219Z,29.0
2017-07-10T03:04:00.539Z,28.8
2017-07-10T03:05:02.758Z,29.2
2017-07-10T03:06:05.033Z,29.6
2017-07-10T03:07:07.253Z,29.1
2017-07-10T03:08:09.500Z,30.2
2017-07-10T03:09:11.746Z,29.6
2017-07-10T03:10:13.924Z,30.6
2017-07-10T03:11:16.163Z,30.9
2017-07-10T03:12:18.542Z,34.0
2017-07-10T03:13:20.857Z,34.3
2017-07-10T03:14:23.005Z,32.2
2017-07-10T03:15:25.357Z,31.8
2017-07-10T03:16:27.579Z,31.9
2017-07-10T03:17:29.900Z,30.8
2017-07-10T03:18:32.135Z,31.7
2017-07-10T03:19:34.486Z,30.8
2017-07-10T03:20:36.678Z,31.6
2017-07-10T03:21:38.787Z,31.5
2017-07-10T03:22:41.033Z,32.8
2017-07-10T03:23:43.213Z,32.2
2017-07-10T03:24:45.497Z,33.3
2017-07-10T03:25:47.761Z,33.5
2017-07-10T03:26:50.056Z,36.7
2017-07-10T03:27:52.345Z,36.7
2017-07-10T03:28:54.620Z,39.1
2017-07-10T03:29:56.786Z,37.4
2017-07-10T03:30:59.025Z,36.6
2017-07-10T03:32:01.283Z,36.1
2017-07-10T03:33:03.459Z,36.7
2017-07-10T03:34:05.757Z,35.9
2017-07-10T03:35:08.065Z,36.3
2017-07-10T03:36:10.835Z,37.2
2017-07-10T03:37:13.929Z,35.1
2017-07-10T03:38:16.171Z,34.5
2017-07-10T03:39:18.375Z,32.4
2017-07-10T03:40:20.392Z,35.1
2017-07-10T03:41:22.666Z,35.1
2017-07-10T03:42:25.060Z,34.0
2017-07-10T03:43:27.438Z,35.6
2017-07-10T03:44:29.670Z,35.6
2017-07-10T03:45:31.836Z,35.8
2017-07-10T03:46:34.050Z,36.1
2017-07-10T03:47:36.384Z,36.1
2017-07-10T03:48:38.583Z,36.6
2017-07-10T03:49:40.739Z,36.1
2017-07-10T03:50:44.512Z,35.8
2017-07-10T03:51:47.215Z,36.9
2017-07-10T03:52:49.461Z,37.8
2017-07-10T03:53:51.773Z,37.8
2017-07-10T03:54:54.296Z,39.0
2017-07-10T03:55:56.572Z,40.4
2017-07-10T03:56:58.754Z,37.8
2017-07-10T03:58:00.963Z,39.7
2017-07-10T03:59:03.137Z,43.5
2017-07-10T04:00:05.335Z,42.1
2017-07-10T04:01:07.556Z,39.0
2017-07-10T04:02:09.920Z,41.0
2017-07-10T04:03:12.043Z,41.6
2017-07-10T04:04:14.303Z,40.1
2017-07-10T04:05:16.407Z,38.7
2017-07-10T04:06:18.849Z,40.6
2017-07-10T04:07:21.122Z,39.2
2017-07-10T04:08:23.317Z,41.7
2017-07-10T04:09:25.651Z,38.9
2017-07-10T04:10:27.850Z,35.5
2017-07-10T04:11:30.173Z,33.7
2017-07-10T04:12:32.471Z,31.9
2017-07-10T04:13:34.755Z,31.8
2017-07-10T04:14:37.025Z,32.5
2017-07-10T04:15:39.263Z,36.8
2017-07-10T04:16:41.551Z,33.5
2017-07-10T04:17:43.819Z,37.7
2017-07-10T04:18:46.001Z,38.9
2017-07-10T04:19:48.282Z,37.8
2017-07-10T04:20:50.474Z,36.5
2017-07-10T04:21:52.670Z,35.6
2017-07-10T04:22:54.824Z,35.5
2017-07-10T04:23:57.110Z,35.0
2017-07-10T04:24:59.295Z,36.7
2017-07-10T04:26:01.543Z,38.5
2017-07-10T04:27:03.767Z,39.1
2017-07-10T04:28:05.949Z,40.0
2017-07-10T04:29:08.153Z,40.7
2017-07-10T04:30:10.433Z,38.2
2017-07-10T04:31:12.706Z,37.4
2017-07-10T04:32:14.817Z,37.2
2017-07-10T04:33:17.009Z,36.2
2017-07-10T04:34:19.088Z,33.6
2017-07-10T04:35:21.264Z,32.8
2017-07-10T04:36:23.459Z,32.1
2017-07-10T04:37:25.683Z,32.0
2017-07-10T04:38:27.867Z,33.0
2017-07-10T04:39:30.189Z,34.2
2017-07-10T04:40:32.431Z,35.0
2017-07-10T04:41:34.658Z,34.2
2017-07-10T04:42:36.811Z,34.3
2017-07-10T04:43:39.103Z,35.0
2017-07-10T04:44:41.299Z,36.6
2017-07-10T04:45:43.483Z,36.7
2017-07-10T04:46:45.653Z,35.1
2017-07-10T04:47:47.869Z,34.6
2017-07-10T04:48:50.034Z,31.9
2017-07-10T04:49:52.261Z,34.8
2017-07-10T04:50:54.580Z,31.3
2017-07-10T04:51:56.883Z,32.5
2017-07-10T04:52:59.176Z,30.6
2017-07-10T04:54:01.390Z,31.6
2017-07-10T04:55:03.693Z,31.6
2017-07-10T04:56:05.824Z,31.9
2017-07-10T04:57:08.031Z,28.7
2017-07-10T04:58:10.260Z,29.2
2017-07-10T04:59:12.473Z,28.2
2017-07-10T05:00:14.560Z,28.6
2017-07-10T05:01:16.822Z,26.8
2017-07-10T05:02:19.340Z,28.7
2017-07-10T05:03:21.676Z,25.3
2017-07-10T05:04:24.049Z,24.6
2017-07-10T05:05:26.469Z,24.3
2017-07-10T05:06:28.650Z,26.0
2017-07-10T05:07:30.960Z,24.5
2017-07-10T05:08:33.565Z,23.2
2017-07-10T05:09:35.730Z,24.9
2017-07-10T05:10:37.911Z,27.3
2017-07-10T05:11:40.204Z,25.4
2017-07-10T05:12:42.419Z,22.1
2017-07-10T05:13:44.802Z,24.0
2017-07-10T05:14:46.974Z,27.3
2017-07-10T05:15:49.222Z,24.2
2017-07-10T05:16:51.526Z,25.7
2017-07-10T05:17:53.785Z,25.2
2017-07-10T05:18:55.897Z,25.1
2017-07-10T05:19:58.292Z,24.1
2017-07-10T05:21:00.614Z,26.1
2017-07-10T05:22:02.806Z,25.2
2017-07-10T05:23:04.927Z,27.2
2017-07-10T05:24:07.242Z,26.1
2017-07-10T05:25:09.461Z,27.1
2017-07-10T05:26:11.693Z,26.3
2017-07-10T05:27:13.922Z,25.9
2017-07-10T05:28:16.254Z,24.2
2017-07-10T05:29:18.442Z,24.3
2017-07-10T05:30:20.695Z,25.3
2017-07-10T05:31:22.958Z,25.9
2017-07-10T05:32:25.233Z,24.6
2017-07-10T05:33:27.526Z,25.6
2017-07-10T05:34:29.626Z,26.1
2017-07-10T05:35:31.942Z,25.4
2017-07-10T05:36:34.232Z,23.1
2017-07-10T05:37:36.585Z,24.8
2017-07-10T05:38:38.772Z,26.4
2017-07-10T05:39:40.979Z,25.4
2017-07-10T05:40:43.243Z,26.3
2017-07-10T05:41:45.455Z,25.4
2017-07-10T05:42:47.772Z,27.1
2017-07-10T05:43:50.033Z,26.8
2017-07-10T05:44:52.273Z,28.9
2017-07-10T05:45:54.421Z,30.2
2017-07-10T05:46:56.659Z,29.4
2017-07-10T05:47:58.886Z,28.3
2017-07-10T05:49:01.163Z,28.9
2017-07-10T05:50:03.511Z,30.3
2017-07-10T05:51:05.711Z,28.4
2017-07-10T05:52:08.213Z,32.4
2017-07-10T05:53:10.414Z,30.3
2017-07-10T05:54:12.794Z,30.7
2017-07-10T05:55:15.170Z,31.1
2017-07-10T05:56:17.307Z,31.3
2017-07-10T05:57:19.638Z,31.5
2017-07-10T05:58:21.879Z,32.1
2017-07-10T05:59:24.215Z,31.9
2017-07-10T06:00:26.496Z,33.9
2017-07-10T06:01:28.755Z,31.8
2017-07-10T06:02:31.114Z,31.5
2017-07-10T06:03:33.305Z,32.4
2017-07-10T06:04:35.651Z,32.4
2017-07-10T06:05:37.962Z,31.2
2017-07-10T06:06:40.122Z,30.6
2017-07-10T06:07:42.488Z,32.2
2017-07-10T06:08:44.734Z,30.9
2017-07-10T06:09:46.997Z,32.1
2017-07-10T06:10:49.533Z,31.9
2017-07-10T06:11:51.971Z,31.5
2017-07-10T06:12:54.256Z,28.8
2017-07-10T06:13:56.566Z,28.2
2017-07-10T06:14:58.893Z,29.2
2017-07-10T06:16:01.078Z,27.9
2017-07-10T06:17:03.379Z,29.5
2017-07-10T06:18:05.717Z,27.6
2017-07-10T06:19:07.926Z,25.3
2017-07-10T06:20:10.892Z,27.5
2017-07-10T06:21:13.215Z,25.0
2017-07-10T06:22:15.449Z,25.5
2017-07-10T06:23:17.653Z,24.4
2017-07-10T06:24:19.960Z,25.2
2017-07-10T06:25:22.193Z,24.8
2017-07-10T06:26:24.425Z,24.9
2017-07-10T06:27:26.682Z,23.1
2017-07-10T06:28:29.012Z,22.2
2017-07-10T06:29:31.432Z,23.4
2017-07-10T06:30:33.742Z,21.6
2017-07-10T06:31:35.891Z,22.3
2017-07-10T06:32:38.203Z,20.5
2017-07-10T06:33:40.340Z,20.7
2017-07-10T06:34:42.698Z,22.7
2017-07-10T06:35:45.064Z,21.7
2017-07-10T06:36:47.225Z,20.5
2017-07-10T06:37:49.511Z,19.8
2017-07-10T06:38:51.881Z,19.8
2017-07-10T06:39:54.198Z,20.7
2017-07-10T06:40:56.445Z,19.8
2017-07-10T06:41:58.690Z,20.2
2017-07-10T06:43:00.947Z,20.7
2017-07-10T06:44:03.228Z,20.3
2017-07-10T06:45:05.620Z,20.1
2017-07-10T06:46:07.855Z,19.2
2017-07-10T06:47:10.153Z,20.8
2017-07-10T06:48:12.558Z,21.0
2017-07-10T06:49:14.902Z,20.0
2017-07-10T06:50:17.220Z,20.3
2017-07-10T06:51:19.458Z,17.8
2017-07-10T06:52:21.674Z,17.9
2017-07-10T06:53:23.937Z,18.2
2017-07-10T06:54:26.260Z,17.9
2017-07-10T06:55:28.478Z,17.8
2017-07-10T06:56:30.604Z,16.9
2017-07-10T06:57:32.942Z,17.5
2017-07-10T06:58:35.138Z,17.4
2017-07-10T06:59:37.537Z,16.4
2017-07-10T07:00:39.836Z,17.3
2017-07-10T07:01:42.111Z,16.1
2017-07-10T07:02:44.427Z,17.2
2017-07-10T07:03:46.634Z,16.7
2017-07-10T07:04:48.906Z,15.8
2017-07-10T07:05:51.162Z,16.6
2017-07-10T07:06:53.401Z,15.6
2017-07-10T07:07:55.551Z,15.7
2017-07-10T07:08:57.875Z,15.7
2017-07-10T07:10:00.172Z,16.3
2017-07-10T07:11:02.427Z,16.0
2017-07-10T07:12:04.909Z,15.8
2017-07-10T07:13:07.243Z,14.2
2017-07-10T07:14:09.372Z,15.3
2017-07-10T07:15:11.707Z,15.3
2017-07-10T07:16:13.974Z,14.3
2017-07-10T07:17:16.263Z,14.8
2017-07-10T07:18:18.529Z,13.4
2017-07-10T07:19:20.797Z,14.3
2017-07-10T07:20:23.168Z,14.7
2017-07-10T07:21:25.414Z,14.5
2017-07-10T07:22:27.609Z,15.1
2017-07-10T07:23:29.998Z,15.1
2017-07-10T07:24:32.422Z,14.2
2017-07-10T07:25:34.710Z,14.3
2017-07-10T07:26:36.966Z,13.9
2017-07-10T07:27:39.437Z,13.4
2017-07-10T07:28:42.004Z,13.0
2017-07-10T07:29:44.420Z,13.7
2017-07-10T07:30:47.224Z,12.3
2017-07-10T07:31:49.643Z,11.7
2017-07-10T07:32:52.071Z,11.7
2017-07-10T07:33:54.544Z,10.9
2017-07-10T07:34:56.924Z,10.0
2017-07-10T07:35:59.292Z,9.9
2017-07-10T07:37:01.566Z,10.5
2017-07-10T07:38:03.892Z,10.3
2017-07-10T07:39:06.212Z,9.8
2017-07-10T07:40:08.681Z,9.4
2017-07-10T07:41:10.924Z,9.5
2017-07-10T07:42:13.209Z,8.8
2017-07-10T07:43:15.442Z,8.0
2017-07-10T07:44:17.792Z,8.2
2017-07-10T07:45:20.189Z,8.8
2017-07-10T07:46:22.590Z,9.0
2017-07-10T07:47:24.868Z,9.1
2017-07-10T07:48:27.416Z,8.7
2017-07-10T07:49:29.883Z,8.2
2017-07-10T07:50:32.289Z,8.3
2017-07-10T07:51:34.596Z,8.7
2017-07-10T07:52:37.046Z,8.7
2017-07-10T07:53:39.404Z,9.0
2017-07-10T07:54:41.670Z,9.2
2017-07-10T07:55:44.154Z,9.8
2017-07-10T07:56:46.559Z,9.7
2017-07-10T07:57:49.101Z,9.2
2017-07-10T07:58:51.362Z,9.4
2017-07-10T07:59:53.906Z,9.1
2017-07-10T08:00:56.309Z,9.6
2017-07-10T08:01:58.724Z,9.4
2017-07-10T08:03:00.934Z,9.8
2017-07-10T08:04:03.292Z,9.4
2017-07-10T08:05:05.533Z,9.3
2017-07-10T08:06:07.848Z,9.6
2017-07-10T08:07:10.069Z,10.3
2017-07-10T08:08:12.421Z,9.8
2017-07-10T08:09:14.822Z,9.9
2017-07-10T08:10:17.302Z,9.8
2017-07-10T08:11:19.700Z,10.6
2017-07-10T08:12:22.013Z,10.6
2017-07-10T08:13:24.266Z,10.4
2017-07-10T08:14:26.548Z,10.1
2017-07-10T08:15:28.982Z,9.5
2017-07-10T08:16:31.272Z,9.8
2017-07-10T08:17:33.554Z,10.0
2017-07-10T08:18:35.785Z,10.6
2017-07-10T08:19:38.105Z,10.0
2017-07-10T08:20:40.376Z,10.4
2017-07-10T08:21:42.666Z,10.4
2017-07-10T08:22:44.931Z,11.0
2017-07-10T08:23:47.226Z,10.6
2017-07-10T08:24:49.508Z,10.9
2017-07-10T08:25:51.680Z,10.7
2017-07-10T08:26:53.997Z,10.6
2017-07-10T08:27:56.290Z,11.7
2017-07-10T08:28:58.589Z,11.9
2017-07-10T08:30:00.934Z,11.6
2017-07-10T08:31:03.061Z,11.5
2017-07-10T08:32:05.280Z,12.5
2017-07-10T08:33:07.469Z,13.4
2017-07-10T08:34:09.825Z,13.4
2017-07-10T08:35:12.039Z,12.6
2017-07-10T08:36:14.312Z,12.9
2017-07-10T08:37:16.493Z,12.6
2017-07-10T08:38:18.741Z,13.1
2017-07-10T08:39:21.046Z,11.7
2017-07-10T08:40:23.344Z,10.8
2017-07-10T08:41:25.482Z,12.6
2017-07-10T08:42:27.774Z,13.2
2017-07-10T08:43:30.160Z,12.6
2017-07-10T08:44:32.369Z,11.9
2017-07-10T08:45:34.485Z,11.8
2017-07-10T08:46:36.847Z,10.3
2017-07-10T08:47:38.948Z,9.5
2017-07-10T08:48:41.159Z,9.4
2017-07-10T08:49:43.374Z,9.7
2017-07-10T08:50:45.577Z,8.0
2017-07-10T08:51:47.924Z,7.8
2017-07-10T08:52:50.093Z,7.2
2017-07-10T08:53:52.374Z,7.0
2017-07-10T08:54:54.651Z,6.7
2017-07-10T08:55:56.997Z,7.3
2017-07-10T08:56:59.254Z,6.7
2017-07-10T08:58:01.494Z,6.2
2017-07-10T08:59:03.891Z,6.6
2017-07-10T09:00:06.207Z,6.6
2017-07-10T09:01:08.477Z,6.3
2017-07-10T09:02:10.788Z,6.3
2017-07-10T09:03:13.008Z,6.9
2017-07-10T09:04:15.285Z,6.4
2017-07-10T09:05:17.568Z,7.0
2017-07-10T09:06:19.793Z,7.3
2017-07-10T09:07:22.000Z,6.9
2017-07-10T09:08:24.259Z,7.4
2017-07-10T09:09:26.616Z,7.4
2017-07-10T09:10:28.853Z,7.4
2017-07-10T09:11:31.148Z,7.7
2017-07-10T09:12:33.396Z,7.8
2017-07-10T09:13:35.681Z,8.2
2017-07-10T09:14:37.785Z,7.7
2017-07-10T09:15:40.080Z,8.4
2017-07-10T09:16:42.326Z,7.9
2017-07-10T09:17:44.568Z,8.6
2017-07-10T09:18:46.807Z,8.8
2017-07-10T09:19:49.009Z,10.1
2017-07-10T09:20:51.353Z,10.1
2017-07-10T09:21:53.588Z,10.5
2017-07-10T09:22:55.966Z,10.9
2017-07-10T09:23:58.181Z,11.8
2017-07-10T09:25:00.510Z,11.6
2017-07-10T09:26:02.638Z,11.8
2017-07-10T09:27:04.953Z,12.0
2017-07-10T09:28:07.210Z,11.9
2017-07-10T09:29:09.417Z,11.1
2017-07-10T09:30:11.811Z,11.2
2017-07-10T09:31:14.118Z,11.5
2017-07-10T09:32:16.442Z,10.1
2017-07-10T09:33:18.815Z,10.7
2017-07-10T09:34:21.749Z,10.3
2017-07-10T09:35:24.031Z,10.6
2017-07-10T09:36:26.388Z,9.9
2017-07-10T09:37:28.619Z,9.3
2017-07-10T09:38:30.859Z,8.9
2017-07-10T09:39:33.008Z,9.2
2017-07-10T09:40:35.199Z,10.5
2017-07-10T09:41:37.430Z,9.3
2017-07-10T09:42:39.785Z,10.0
2017-07-10T09:43:42.049Z,10.2
2017-07-10T09:44:44.440Z,9.5
2017-07-10T09:45:46.680Z,9.5
2017-07-10T09:46:48.889Z,9.6
2017-07-10T09:47:51.182Z,8.8
2017-07-10T09:48:53.340Z,8.1
2017-07-10T09:49:55.647Z,8.2
2017-07-10T09:50:57.925Z,8.4
2017-07-10T09:52:00.094Z,8.1
2017-07-10T09:53:02.342Z,7.8
2017-07-10T09:54:04.617Z,8.6
2017-07-10T09:55:06.966Z,8.1
2017-07-10T09:56:09.309Z,8.2
2017-07-10T09:57:11.619Z,8.0
2017-07-10T09:58:14.005Z,8.4
2017-07-10T09:59:16.280Z,8.9
2017-07-10T10:00:18.582Z,8.6
2017-07-10T10:01:20.912Z,8.2
2017-07-10T10:02:23.279Z,8.5
2017-07-10T10:03:25.608Z,8.7
2017-07-10T10:04:27.906Z,8.3
2017-07-10T10:05:30.218Z,8.2
2017-07-10T10:06:32.485Z,9.0
2017-07-10T10:07:34.829Z,8.9
2017-07-10T10:08:37.759Z,7.8
2017-07-10T10:09:40.448Z,9.0
2017-07-10T10:10:42.508Z,8.4
2017-07-10T10:11:44.906Z,8.0
2017-07-10T10:12:49.728Z,8.0
2017-07-10T10:14:25.527Z,7.6
2017-07-10T10:15:27.685Z,8.2
2017-07-10T10:16:30.058Z,7.6
2017-07-10T10:17:32.287Z,6.5
2017-07-10T10:18:34.538Z,7.1
2017-07-10T10:19:36.893Z,7.0
2017-07-10T10:20:39.174Z,7.3
2017-07-10T10:21:41.297Z,6.7
2017-07-10T10:22:43.645Z,7.6
2017-07-10T10:23:45.977Z,7.5
2017-07-10T10:24:48.241Z,7.0
2017-07-10T10:25:50.578Z,6.8
2017-07-10T10:26:52.902Z,7.3
2017-07-10T10:27:55.249Z,7.1
2017-07-10T10:28:57.379Z,7.2
2017-07-10T10:29:59.644Z,7.4
2017-07-10T10:31:01.832Z,7.4
2017-07-10T10:32:04.258Z,6.8
2017-07-10T10:33:06.551Z,7.2
2017-07-10T10:34:08.867Z,7.1
2017-07-10T10:35:11.152Z,7.1
2017-07-10T10:36:13.384Z,6.5
2017-07-10T10:37:15.737Z,7.0
2017-07-10T10:38:18.075Z,6.7
2017-07-10T10:39:20.454Z,6.7
2017-07-10T10:40:22.737Z,7.0
2017-07-10T10:41:25.035Z,6.5
2017-07-10T10:42:27.240Z,6.4
2017-07-10T10:43:29.510Z,6.0
2017-07-10T10:44:31.781Z,6.1
2017-07-10T10:45:34.135Z,5.7
2017-07-10T10:46:36.372Z,5.8
2017-07-10T10:47:38.643Z,5.6
2017-07-10T10:48:40.832Z,5.1
2017-07-10T10:49:43.111Z,4.7
2017-07-10T10:50:45.465Z,4.8
2017-07-10T10:51:47.817Z,4.9
2017-07-10T10:52:50.028Z,4.9
2017-07-10T10:53:52.240Z,5.0
2017-07-10T10:54:54.578Z,4.7
2017-07-10T10:55:56.961Z,5.0
2017-07-10T10:56:59.272Z,4.4
2017-07-10T10:58:01.519Z,4.7
2017-07-10T10:59:03.837Z,3.8
2017-07-10T11:00:06.026Z,4.2
2017-07-10T11:01:08.374Z,4.3
2017-07-10T11:02:10.620Z,4.3
2017-07-10T11:03:12.904Z,4.1
2017-07-10T11:04:15.185Z,4.7
2017-07-10T11:05:17.436Z,4.0
2017-07-10T11:06:19.774Z,4.0
2017-07-10T11:07:22.269Z,3.8
2017-07-10T11:08:24.591Z,4.5
2017-07-10T11:09:26.904Z,4.6
2017-07-10T11:10:29.234Z,4.5
2017-07-10T11:11:31.494Z,5.0
2017-07-10T11:12:33.819Z,3.9
2017-07-10T11:13:36.042Z,4.4
2017-07-10T11:14:38.278Z,5.0
2017-07-10T11:15:40.646Z,4.4
2017-07-10T11:16:42.922Z,4.4
2017-07-10T11:17:45.187Z,4.6
2017-07-10T11:18:47.351Z,5.4
2017-07-10T11:19:49.661Z,5.3
2017-07-10T11:20:51.973Z,4.9
2017-07-10T11:21:54.290Z,4.8
2017-07-10T11:22:56.464Z,4.9
2017-07-10T11:23:58.743Z,4.6
2017-07-10T11:25:01.107Z,4.8
2017-07-10T11:26:03.285Z,4.2
2017-07-10T11:27:05.596Z,4.5
2017-07-10T11:28:07.753Z,4.5
2017-07-10T11:29:10.093Z,4.3
2017-07-10T11:30:12.412Z,4.3
2017-07-10T11:31:14.586Z,4.4
2017-07-10T11:32:16.872Z,4.0
2017-07-10T11:33:19.204Z,3.6
2017-07-10T11:34:21.452Z,3.2
2017-07-10T11:35:23.893Z,3.4
2017-07-10T11:36:26.049Z,3.0
2017-07-10T11:37:28.224Z,3.0
2017-07-10T11:38:30.473Z,3.2
2017-07-10T11:39:32.803Z,3.1
2017-07-10T11:40:35.139Z,2.6
2017-07-10T11:41:37.534Z,2.7
2017-07-10T11:42:39.764Z,2.6
2017-07-10T11:43:42.218Z,2.8
2017-07-10T11:44:44.508Z,3.0
2017-07-10T11:45:46.613Z,2.4
2017-07-10T11:46:48.961Z,3.1
2017-07-10T11:47:51.165Z,3.0
2017-07-10T11:48:53.536Z,2.9
2017-07-10T11:49:55.761Z,3.0
2017-07-10T11:50:58.121Z,2.7
2017-07-10T11:52:00.271Z,3.4
2017-07-10T11:53:02.690Z,3.1
2017-07-10T11:54:05.015Z,3.3
2017-07-10T11:55:07.305Z,3.2
2017-07-10T11:56:09.548Z,3.4
2017-07-10T11:57:11.852Z,3.6
2017-07-10T11:58:14.169Z,3.1
2017-07-10T11:59:16.341Z,3.4
2017-07-10T12:00:18.561Z,3.4
2017-07-10T12:01:20.800Z,3.5
2017-07-10T12:02:23.107Z,3.4
2017-07-10T12:03:25.474Z,3.7
2017-07-10T12:04:27.601Z,3.4
2017-07-10T12:05:29.929Z,3.9
2017-07-10T12:06:32.219Z,3.7
2017-07-10T12:07:34.456Z,4.1
2017-07-10T12:08:36.717Z,3.9
2017-07-10T12:09:38.986Z,4.3
2017-07-10T12:10:41.260Z,4.0
2017-07-10T12:11:43.470Z,4.5
2017-07-10T12:12:45.840Z,4.6
2017-07-10T12:13:48.088Z,4.6
2017-07-10T12:14:50.283Z,5.0
2017-07-10T12:15:52.657Z,5.1
2017-07-10T12:16:54.956Z,4.9
2017-07-10T12:17:57.249Z,5.1
2017-07-10T12:18:59.501Z,4.4
2017-07-10T12:20:01.809Z,4.0
2017-07-10T12:21:04.039Z,3.3
2017-07-10T12:22:06.291Z,3.4
2017-07-10T12:23:08.474Z,3.4
2017-07-10T12:24:10.704Z,3.6
2017-07-10T12:25:12.955Z,2.7
2017-07-10T12:26:15.197Z,3.3
2017-07-10T12:27:17.447Z,3.3
2017-07-10T12:28:19.679Z,4.1
2017-07-10T12:29:21.858Z,3.4
2017-07-10T12:30:24.232Z,3.9
2017-07-10T12:31:26.415Z,3.9
2017-07-10T12:32:28.723Z,3.8
2017-07-10T12:33:30.961Z,4.3
2017-07-10T12:34:33.232Z,3.9
2017-07-10T12:35:35.469Z,4.0
2017-07-10T12:36:37.620Z,3.9
2017-07-10T12:37:39.813Z,4.4
2017-07-10T12:38:41.997Z,4.5
2017-07-10T12:39:44.323Z,4.6
2017-07-10T12:40:46.619Z,4.9
2017-07-10T12:41:48.927Z,5.7
2017-07-10T12:42:51.230Z,4.9
2017-07-10T12:43:53.567Z,4.9
2017-07-10T12:44:56.321Z,5.5
2017-07-10T12:45:58.869Z,5.3
2017-07-10T12:47:01.412Z,4.6
2017-07-10T12:48:03.938Z,4.5
2017-07-10T12:49:06.370Z,5.0
2017-07-10T12:50:08.874Z,4.8
2017-07-10T12:51:11.117Z,4.3
2017-07-10T12:52:13.254Z,4.5
2017-07-10T12:53:15.464Z,5.0
2017-07-10T12:54:17.725Z,5.7
2017-07-10T12:55:19.828Z,5.6
2017-07-10T12:56:22.093Z,5.8
2017-07-10T12:57:24.354Z,5.9
2017-07-10T12:58:26.663Z,5.7
2017-07-10T12:59:28.972Z,6.0
2017-07-10T13:00:31.247Z,5.6
2017-07-10T13:01:33.550Z,6.3
2017-07-10T13:02:35.783Z,5.6
2017-07-10T13:03:38.017Z,5.1
2017-07-10T13:04:40.254Z,4.9
2017-07-10T13:05:42.612Z,5.7
2017-07-10T13:06:44.881Z,6.0
2017-07-10T13:07:47.185Z,4.9
2017-07-10T13:08:49.484Z,5.5
2017-07-10T13:09:51.852Z,5.5
2017-07-10T13:10:54.030Z,5.0
2017-07-10T13:11:56.140Z,5.3
2017-07-10T13:12:58.416Z,5.1
2017-07-10T13:14:00.697Z,4.6
2017-07-10T13:15:02.907Z,6.3
2017-07-10T13:16:05.205Z,4.7
2017-07-10T13:17:07.487Z,4.9
2017-07-10T13:18:09.900Z,4.6
2017-07-10T13:19:12.175Z,4.2
2017-07-10T13:20:14.396Z,4.7
2017-07-10T13:21:16.767Z,4.4
2017-07-10T13:22:19.068Z,3.3
2017-07-10T13:23:21.381Z,3.6
2017-07-10T13:24:23.624Z,3.1
2017-07-10T13:25:26.037Z,2.9
2017-07-10T13:26:28.328Z,3.1
2017-07-10T13:27:30.788Z,3.0
2017-07-10T13:28:32.904Z,2.9
2017-07-10T13:29:35.171Z,3.4
2017-07-10T13:30:37.521Z,3.0
2017-07-10T13:31:39.827Z,3.0
2017-07-10T13:32:42.110Z,3.6
2017-07-10T13:33:44.449Z,2.6
2017-07-10T13:34:46.704Z,2.9
2017-07-10T13:35:48.823Z,3.3
2017-07-10T13:36:51.056Z,3.1
2017-07-10T13:37:53.249Z,3.6
2017-07-10T13:38:55.598Z,3.1
2017-07-10T13:39:57.878Z,3.3
2017-07-10T13:41:00.132Z,3.4
2017-07-10T13:42:02.411Z,2.9
2017-07-10T13:43:04.616Z,3.2
2017-07-10T13:44:06.955Z,3.1
2017-07-10T13:45:09.130Z,3.1
2017-07-10T13:46:11.402Z,3.1
2017-07-10T13:47:13.710Z,3.6
2017-07-10T13:48:15.966Z,3.7
2017-07-10T13:49:18.255Z,3.4
2017-07-10T13:50:20.507Z,3.8
2017-07-10T13:51:22.830Z,3.4
2017-07-10T13:52:25.031Z,3.7
2017-07-10T13:53:27.322Z,3.8
2017-07-10T13:54:29.599Z,3.4
2017-07-10T13:55:31.818Z,3.8
2017-07-10T13:56:34.147Z,3.2
2017-07-10T13:57:36.495Z,3.4
2017-07-10T13:58:38.731Z,3.7
2017-07-10T13:59:41.050Z,3.7
2017-07-10T14:00:43.277Z,4.1